sensor_id;sensor_type;location;lat;lon;timestamp;P1;durP1;ratioP1;P2;durP2;ratioP2
72951;SDS011;61102;51.956;5.878;2022-09-13T00:00:43;2.15;;;1.02;;
72951;SDS011;61102;51.956;5.878;2022-09-13T00:03:10;2.13;;;0.88;;
72951;SDS011;61102;51.956;5.878;2022-09-13T00:05:37;2.22;;;1.00;;
72951;SDS011;61102;51.956;5.878;2022-09-13T00:12:58;2.83;;;0.95;;
72951;SDS011;61102;51.956;5.878;2022-09-13T00:15:25;3.25;;;1.00;;
72951;SDS011;61102;51.956;5.878;2022-09-13T00:17:51;3.17;;;1.20;;
72951;SDS011;61102;51.956;5.878;2022-09-13T00:20:17;2.70;;;1.10;;
72951;SDS011;61102;51.956;5.878;2022-09-13T00:22:43;3.35;;;1.15;;
72951;SDS011;61102;51.956;5.878;2022-09-13T00:25:09;3.83;;;1.30;;
72951;SDS011;61102;51.956;5.878;2022-09-13T00:27:35;4.57;;;1.40;;
72951;SDS011;61102;51.956;5.878;2022-09-13T00:30:05;3.20;;;1.08;;
72951;SDS011;61102;51.956;5.878;2022-09-13T00:32:33;3.22;;;1.30;;
72951;SDS011;61102;51.956;5.878;2022-09-13T00:37:26;2.88;;;1.00;;
72951;SDS011;61102;51.956;5.878;2022-09-13T00:39:52;3.22;;;1.10;;
72951;SDS011;61102;51.956;5.878;2022-09-13T00:42:23;3.15;;;1.10;;
72951;SDS011;61102;51.956;5.878;2022-09-13T00:44:59;2.80;;;0.93;;
72951;SDS011;61102;51.956;5.878;2022-09-13T00:50:03;3.28;;;1.13;;
72951;SDS011;61102;51.956;5.878;2022-09-13T00:52:55;3.67;;;1.33;;
72951;SDS011;61102;51.956;5.878;2022-09-13T00:55:36;4.03;;;1.30;;
72951;SDS011;61102;51.956;5.878;2022-09-13T00:58:17;5.32;;;1.40;;
72951;SDS011;61102;51.956;5.878;2022-09-13T01:01:11;3.35;;;1.25;;
72951;SDS011;61102;51.956;5.878;2022-09-13T01:03:39;3.72;;;1.40;;
72951;SDS011;61102;51.956;5.878;2022-09-13T01:06:09;3.33;;;1.27;;
72951;SDS011;61102;51.956;5.878;2022-09-13T01:08:38;4.05;;;1.50;;
72951;SDS011;61102;51.956;5.878;2022-09-13T01:11:07;5.10;;;1.58;;
72951;SDS011;61102;51.956;5.878;2022-09-13T01:13:37;5.00;;;1.73;;
72951;SDS011;61102;51.956;5.878;2022-09-13T01:16:04;5.13;;;1.80;;
72951;SDS011;61102;51.956;5.878;2022-09-13T01:18:30;5.38;;;1.90;;
72951;SDS011;61102;51.956;5.878;2022-09-13T01:51:36;6.13;;;1.73;;
72951;SDS011;61102;51.956;5.878;2022-09-13T01:57:01;4.70;;;1.67;;
72951;SDS011;61102;51.956;5.878;2022-09-13T01:59:38;4.55;;;1.48;;
72951;SDS011;61102;51.956;5.878;2022-09-13T02:02:23;4.32;;;1.60;;
72951;SDS011;61102;51.956;5.878;2022-09-13T02:04:54;6.15;;;2.03;;
72951;SDS011;61102;51.956;5.878;2022-09-13T02:09:58;4.93;;;1.58;;
72951;SDS011;61102;51.956;5.878;2022-09-13T02:12:28;4.82;;;1.85;;
72951;SDS011;61102;51.956;5.878;2022-09-13T02:15:02;4.22;;;1.55;;
72951;SDS011;61102;51.956;5.878;2022-09-13T02:17:37;5.05;;;1.60;;
72951;SDS011;61102;51.956;5.878;2022-09-13T02:20:15;4.03;;;1.40;;
72951;SDS011;61102;51.956;5.878;2022-09-13T02:22:51;4.47;;;1.45;;
72951;SDS011;61102;51.956;5.878;2022-09-13T02:25:21;5.70;;;1.88;;
72951;SDS011;61102;51.956;5.878;2022-09-13T02:27:51;6.38;;;2.00;;
72951;SDS011;61102;51.956;5.878;2022-09-13T02:30:23;4.28;;;1.50;;
72951;SDS011;61102;51.956;5.878;2022-09-13T02:35:28;4.25;;;1.55;;
72951;SDS011;61102;51.956;5.878;2022-09-13T02:38:02;3.83;;;1.40;;
72951;SDS011;61102;51.956;5.878;2022-09-13T02:40:37;4.38;;;1.35;;
72951;SDS011;61102;51.956;5.878;2022-09-13T02:43:09;4.50;;;1.52;;
72951;SDS011;61102;51.956;5.878;2022-09-13T02:46:09;5.30;;;1.95;;
72951;SDS011;61102;51.956;5.878;2022-09-13T02:48:35;4.78;;;1.73;;
72951;SDS011;61102;51.956;5.878;2022-09-13T02:51:43;4.57;;;1.73;;
72951;SDS011;61102;51.956;5.878;2022-09-13T02:54:42;6.25;;;2.25;;
72951;SDS011;61102;51.956;5.878;2022-09-13T02:57:27;4.88;;;1.90;;
72951;SDS011;61102;51.956;5.878;2022-09-13T02:59:57;4.63;;;1.60;;
72951;SDS011;61102;51.956;5.878;2022-09-13T03:02:25;4.68;;;1.58;;
72951;SDS011;61102;51.956;5.878;2022-09-13T03:04:56;3.55;;;1.23;;
72951;SDS011;61102;51.956;5.878;2022-09-13T03:07:23;7.70;;;3.25;;
72951;SDS011;61102;51.956;5.878;2022-09-13T03:09:51;5.80;;;2.30;;
72951;SDS011;61102;51.956;5.878;2022-09-13T03:17:48;5.50;;;1.98;;
72951;SDS011;61102;51.956;5.878;2022-09-13T03:20:36;4.57;;;1.83;;
72951;SDS011;61102;51.956;5.878;2022-09-13T03:25:52;6.43;;;2.03;;
72951;SDS011;61102;51.956;5.878;2022-09-13T03:28:45;4.90;;;1.83;;
72951;SDS011;61102;51.956;5.878;2022-09-13T03:31:35;7.28;;;1.60;;
72951;SDS011;61102;51.956;5.878;2022-09-13T03:35:03;5.20;;;2.00;;
72951;SDS011;61102;51.956;5.878;2022-09-13T03:39:59;4.07;;;1.80;;
72951;SDS011;61102;51.956;5.878;2022-09-13T03:42:45;5.07;;;1.80;;
72951;SDS011;61102;51.956;5.878;2022-09-13T03:45:19;4.60;;;1.77;;
72951;SDS011;61102;51.956;5.878;2022-09-13T03:47:48;4.35;;;1.80;;
72951;SDS011;61102;51.956;5.878;2022-09-13T03:50:17;5.80;;;2.30;;
72951;SDS011;61102;51.956;5.878;2022-09-13T03:52:46;4.75;;;1.73;;
72951;SDS011;61102;51.956;5.878;2022-09-13T03:55:19;7.97;;;1.92;;
72951;SDS011;61102;51.956;5.878;2022-09-13T03:57:46;4.78;;;1.80;;
72951;SDS011;61102;51.956;5.878;2022-09-13T04:00:12;4.90;;;1.85;;
72951;SDS011;61102;51.956;5.878;2022-09-13T04:02:39;4.68;;;1.63;;
72951;SDS011;61102;51.956;5.878;2022-09-13T04:05:05;4.32;;;1.70;;
72951;SDS011;61102;51.956;5.878;2022-09-13T04:07:32;5.07;;;1.90;;
72951;SDS011;61102;51.956;5.878;2022-09-13T04:09:58;5.80;;;2.03;;
72951;SDS011;61102;51.956;5.878;2022-09-13T04:12:24;5.25;;;2.08;;
72951;SDS011;61102;51.956;5.878;2022-09-13T04:17:38;4.78;;;1.80;;
72951;SDS011;61102;51.956;5.878;2022-09-13T04:20:04;4.93;;;1.85;;
72951;SDS011;61102;51.956;5.878;2022-09-13T04:22:30;4.90;;;1.80;;
72951;SDS011;61102;51.956;5.878;2022-09-13T04:24:57;4.47;;;1.52;;
72951;SDS011;61102;51.956;5.878;2022-09-13T04:27:23;4.18;;;1.60;;
72951;SDS011;61102;51.956;5.878;2022-09-13T04:29:50;5.28;;;1.75;;
72951;SDS011;61102;51.956;5.878;2022-09-13T04:32:16;5.60;;;2.15;;
72951;SDS011;61102;51.956;5.878;2022-09-13T04:34:42;4.80;;;1.90;;
72951;SDS011;61102;51.956;5.878;2022-09-13T04:37:08;6.70;;;2.03;;
72951;SDS011;61102;51.956;5.878;2022-09-13T04:39:34;5.25;;;1.92;;
72951;SDS011;61102;51.956;5.878;2022-09-13T04:42:00;5.18;;;2.00;;
72951;SDS011;61102;51.956;5.878;2022-09-13T04:44:26;5.72;;;2.33;;
72951;SDS011;61102;51.956;5.878;2022-09-13T04:46:53;5.72;;;2.20;;
72951;SDS011;61102;51.956;5.878;2022-09-13T04:49:20;5.68;;;2.28;;
72951;SDS011;61102;51.956;5.878;2022-09-13T04:51:46;5.53;;;2.28;;
72951;SDS011;61102;51.956;5.878;2022-09-13T04:54:14;5.25;;;2.17;;
72951;SDS011;61102;51.956;5.878;2022-09-13T04:59:31;6.30;;;2.47;;
72951;SDS011;61102;51.956;5.878;2022-09-13T05:01:57;6.20;;;2.45;;
72951;SDS011;61102;51.956;5.878;2022-09-13T05:04:23;6.32;;;2.42;;
72951;SDS011;61102;51.956;5.878;2022-09-13T05:06:49;6.57;;;2.72;;
72951;SDS011;61102;51.956;5.878;2022-09-13T05:09:15;5.38;;;2.17;;
72951;SDS011;61102;51.956;5.878;2022-09-13T05:11:41;5.63;;;2.28;;
72951;SDS011;61102;51.956;5.878;2022-09-13T05:14:08;5.88;;;2.28;;
72951;SDS011;61102;51.956;5.878;2022-09-13T05:16:35;6.93;;;2.22;;
72951;SDS011;61102;51.956;5.878;2022-09-13T05:19:01;6.85;;;2.90;;
72951;SDS011;61102;51.956;5.878;2022-09-13T05:21:28;6.30;;;2.30;;
72951;SDS011;61102;51.956;5.878;2022-09-13T05:23:55;6.18;;;2.47;;
72951;SDS011;61102;51.956;5.878;2022-09-13T05:26:24;6.43;;;2.50;;
72951;SDS011;61102;51.956;5.878;2022-09-13T05:28:53;5.97;;;2.63;;
72951;SDS011;61102;51.956;5.878;2022-09-13T05:31:20;6.95;;;2.33;;
72951;SDS011;61102;51.956;5.878;2022-09-13T05:33:54;6.70;;;2.42;;
72951;SDS011;61102;51.956;5.878;2022-09-13T05:36:22;6.35;;;2.45;;
72951;SDS011;61102;51.956;5.878;2022-09-13T05:38:48;6.13;;;2.33;;
72951;SDS011;61102;51.956;5.878;2022-09-13T05:41:14;6.05;;;2.30;;
72951;SDS011;61102;51.956;5.878;2022-09-13T05:43:40;5.93;;;2.33;;
72951;SDS011;61102;51.956;5.878;2022-09-13T05:46:08;6.18;;;2.30;;
72951;SDS011;61102;51.956;5.878;2022-09-13T05:48:38;6.68;;;2.55;;
72951;SDS011;61102;51.956;5.878;2022-09-13T05:51:05;6.38;;;2.42;;
72951;SDS011;61102;51.956;5.878;2022-09-13T05:53:33;5.65;;;2.20;;
72951;SDS011;61102;51.956;5.878;2022-09-13T05:56:00;6.50;;;2.67;;
72951;SDS011;61102;51.956;5.878;2022-09-13T05:58:26;7.85;;;2.75;;
72951;SDS011;61102;51.956;5.878;2022-09-13T06:00:53;6.57;;;2.75;;
72951;SDS011;61102;51.956;5.878;2022-09-13T06:03:20;6.30;;;2.40;;
72951;SDS011;61102;51.956;5.878;2022-09-13T06:05:47;5.20;;;1.98;;
72951;SDS011;61102;51.956;5.878;2022-09-13T06:08:13;9.57;;;2.75;;
72951;SDS011;61102;51.956;5.878;2022-09-13T06:10:39;6.65;;;2.97;;
72951;SDS011;61102;51.956;5.878;2022-09-13T06:13:05;6.20;;;2.50;;
72951;SDS011;61102;51.956;5.878;2022-09-13T06:15:31;5.75;;;2.45;;
72951;SDS011;61102;51.956;5.878;2022-09-13T06:17:57;6.20;;;2.42;;
72951;SDS011;61102;51.956;5.878;2022-09-13T06:20:23;6.00;;;2.50;;
72951;SDS011;61102;51.956;5.878;2022-09-13T06:22:49;6.68;;;2.65;;
72951;SDS011;61102;51.956;5.878;2022-09-13T06:25:15;7.57;;;2.70;;
72951;SDS011;61102;51.956;5.878;2022-09-13T06:27:41;7.07;;;2.60;;
72951;SDS011;61102;51.956;5.878;2022-09-13T06:30:07;7.25;;;2.90;;
72951;SDS011;61102;51.956;5.878;2022-09-13T06:32:34;8.73;;;3.88;;
72951;SDS011;61102;51.956;5.878;2022-09-13T06:35:00;8.07;;;3.78;;
72951;SDS011;61102;51.956;5.878;2022-09-13T06:37:26;7.10;;;3.10;;
72951;SDS011;61102;51.956;5.878;2022-09-13T06:39:52;8.45;;;4.00;;
72951;SDS011;61102;51.956;5.878;2022-09-13T06:42:18;6.72;;;2.90;;
72951;SDS011;61102;51.956;5.878;2022-09-13T06:44:44;7.93;;;3.08;;
72951;SDS011;61102;51.956;5.878;2022-09-13T06:47:13;8.93;;;3.47;;
72951;SDS011;61102;51.956;5.878;2022-09-13T06:49:39;7.68;;;3.15;;
72951;SDS011;61102;51.956;5.878;2022-09-13T06:52:05;7.25;;;3.03;;
72951;SDS011;61102;51.956;5.878;2022-09-13T06:54:31;7.72;;;3.40;;
72951;SDS011;61102;51.956;5.878;2022-09-13T06:56:57;10.38;;;4.72;;
72951;SDS011;61102;51.956;5.878;2022-09-13T06:59:23;8.82;;;3.85;;
72951;SDS011;61102;51.956;5.878;2022-09-13T07:01:49;7.68;;;3.22;;
72951;SDS011;61102;51.956;5.878;2022-09-13T07:04:15;8.02;;;3.63;;
72951;SDS011;61102;51.956;5.878;2022-09-13T07:06:47;8.00;;;3.28;;
72951;SDS011;61102;51.956;5.878;2022-09-13T07:09:18;11.80;;;3.85;;
72951;SDS011;61102;51.956;5.878;2022-09-13T07:11:46;7.78;;;3.25;;
72951;SDS011;61102;51.956;5.878;2022-09-13T07:16:40;11.25;;;4.78;;
72951;SDS011;61102;51.956;5.878;2022-09-13T07:19:06;9.13;;;3.80;;
72951;SDS011;61102;51.956;5.878;2022-09-13T07:21:36;8.43;;;4.18;;
72951;SDS011;61102;51.956;5.878;2022-09-13T07:24:03;12.45;;;6.72;;
72951;SDS011;61102;51.956;5.878;2022-09-13T07:26:29;14.73;;;6.88;;
72951;SDS011;61102;51.956;5.878;2022-09-13T07:28:57;10.30;;;4.78;;
72951;SDS011;61102;51.956;5.878;2022-09-13T07:31:26;9.85;;;4.28;;
72951;SDS011;61102;51.956;5.878;2022-09-13T07:33:57;9.05;;;4.03;;
72951;SDS011;61102;51.956;5.878;2022-09-13T07:36:25;8.32;;;3.70;;
72951;SDS011;61102;51.956;5.878;2022-09-13T07:38:55;12.40;;;5.40;;
72951;SDS011;61102;51.956;5.878;2022-09-13T07:41:22;10.57;;;5.05;;
72951;SDS011;61102;51.956;5.878;2022-09-13T07:43:50;10.38;;;5.88;;
72951;SDS011;61102;51.956;5.878;2022-09-13T07:46:20;11.77;;;5.20;;
72951;SDS011;61102;51.956;5.878;2022-09-13T07:48:48;8.50;;;4.00;;
72951;SDS011;61102;51.956;5.878;2022-09-13T07:51:18;9.55;;;4.43;;
72951;SDS011;61102;51.956;5.878;2022-09-13T07:53:46;8.68;;;3.58;;
72951;SDS011;61102;51.956;5.878;2022-09-13T07:56:18;10.75;;;4.32;;
72951;SDS011;61102;51.956;5.878;2022-09-13T07:58:46;12.02;;;6.05;;
72951;SDS011;61102;51.956;5.878;2022-09-13T08:01:24;12.55;;;6.47;;
72951;SDS011;61102;51.956;5.878;2022-09-13T08:03:55;7.78;;;3.33;;
72951;SDS011;61102;51.956;5.878;2022-09-13T08:06:24;9.27;;;3.40;;
72951;SDS011;61102;51.956;5.878;2022-09-13T08:08:51;9.00;;;4.35;;
72951;SDS011;61102;51.956;5.878;2022-09-13T08:13:46;8.43;;;2.97;;
72951;SDS011;61102;51.956;5.878;2022-09-13T08:16:13;9.82;;;3.15;;
72951;SDS011;61102;51.956;5.878;2022-09-13T08:18:43;5.93;;;2.05;;
72951;SDS011;61102;51.956;5.878;2022-09-13T08:21:10;8.93;;;3.88;;
72951;SDS011;61102;51.956;5.878;2022-09-13T08:23:36;10.00;;;3.35;;
72951;SDS011;61102;51.956;5.878;2022-09-13T08:26:02;9.35;;;3.05;;
72951;SDS011;61102;51.956;5.878;2022-09-13T08:28:28;6.10;;;2.03;;
72951;SDS011;61102;51.956;5.878;2022-09-13T08:31:01;7.78;;;1.98;;
72951;SDS011;61102;51.956;5.878;2022-09-13T08:33:30;5.88;;;1.80;;
72951;SDS011;61102;51.956;5.878;2022-09-13T08:35:56;8.02;;;2.72;;
72951;SDS011;61102;51.956;5.878;2022-09-13T08:38:23;7.00;;;2.88;;
72951;SDS011;61102;51.956;5.878;2022-09-13T08:40:57;8.25;;;2.47;;
72951;SDS011;61102;51.956;5.878;2022-09-13T08:46:10;8.07;;;3.20;;
72951;SDS011;61102;51.956;5.878;2022-09-13T08:48:46;11.43;;;4.50;;
72951;SDS011;61102;51.956;5.878;2022-09-13T08:51:57;7.28;;;2.75;;
72951;SDS011;61102;51.956;5.878;2022-09-13T08:54:12;8.30;;;3.00;;
72951;SDS011;61102;51.956;5.878;2022-09-13T08:56:43;7.72;;;2.90;;
72951;SDS011;61102;51.956;5.878;2022-09-13T09:10:40;15.35;;;7.60;;
72951;SDS011;61102;51.956;5.878;2022-09-13T09:15:48;9.98;;;3.85;;
72951;SDS011;61102;51.956;5.878;2022-09-13T09:18:24;9.65;;;4.05;;
72951;SDS011;61102;51.956;5.878;2022-09-13T09:20:57;11.90;;;4.93;;
72951;SDS011;61102;51.956;5.878;2022-09-13T09:23:26;8.13;;;3.70;;
72951;SDS011;61102;51.956;5.878;2022-09-13T09:26:17;8.00;;;3.40;;
72951;SDS011;61102;51.956;5.878;2022-09-13T09:28:53;8.65;;;4.20;;
72951;SDS011;61102;51.956;5.878;2022-09-13T09:37:10;9.73;;;4.10;;
72951;SDS011;61102;51.956;5.878;2022-09-13T09:39:47;9.90;;;4.50;;
72951;SDS011;61102;51.956;5.878;2022-09-13T09:42:16;7.80;;;3.63;;
72951;SDS011;61102;51.956;5.878;2022-09-13T09:44:46;7.38;;;3.45;;
72951;SDS011;61102;51.956;5.878;2022-09-13T09:47:20;11.20;;;4.57;;
72951;SDS011;61102;51.956;5.878;2022-09-13T09:50:02;9.18;;;3.05;;
72951;SDS011;61102;51.956;5.878;2022-09-13T09:53:07;8.93;;;2.72;;
72951;SDS011;61102;51.956;5.878;2022-09-13T09:55:53;6.75;;;2.22;;
72951;SDS011;61102;51.956;5.878;2022-09-13T09:58:41;8.82;;;3.38;;
72951;SDS011;61102;51.956;5.878;2022-09-13T10:01:19;8.80;;;3.25;;
72951;SDS011;61102;51.956;5.878;2022-09-13T10:04:05;7.53;;;2.88;;
72951;SDS011;61102;51.956;5.878;2022-09-13T10:06:43;8.68;;;2.40;;
72951;SDS011;61102;51.956;5.878;2022-09-13T10:09:20;6.53;;;2.28;;
72951;SDS011;61102;51.956;5.878;2022-09-13T10:11:51;6.85;;;1.85;;
72951;SDS011;61102;51.956;5.878;2022-09-13T10:19:59;6.53;;;2.15;;
72951;SDS011;61102;51.956;5.878;2022-09-13T10:22:44;5.90;;;1.50;;
72951;SDS011;61102;51.956;5.878;2022-09-13T10:25:39;2.80;;;0.95;;
72951;SDS011;61102;51.956;5.878;2022-09-13T10:28:12;3.53;;;1.10;;
72951;SDS011;61102;51.956;5.878;2022-09-13T10:30:45;5.00;;;1.58;;
72951;SDS011;61102;51.956;5.878;2022-09-13T10:36:05;5.70;;;1.33;;
72951;SDS011;61102;51.956;5.878;2022-09-13T10:38:37;5.65;;;1.63;;
72951;SDS011;61102;51.956;5.878;2022-09-13T10:41:05;6.25;;;1.95;;
72951;SDS011;61102;51.956;5.878;2022-09-13T10:43:34;5.88;;;1.73;;
72951;SDS011;61102;51.956;5.878;2022-09-13T10:46:02;7.07;;;2.25;;
72951;SDS011;61102;51.956;5.878;2022-09-13T10:48:30;5.32;;;1.80;;
72951;SDS011;61102;51.956;5.878;2022-09-13T10:51:19;6.68;;;1.80;;
72951;SDS011;61102;51.956;5.878;2022-09-13T10:54:06;6.47;;;1.83;;
72951;SDS011;61102;51.956;5.878;2022-09-13T10:56:34;7.53;;;1.92;;
72951;SDS011;61102;51.956;5.878;2022-09-13T10:59:13;5.78;;;1.83;;
72951;SDS011;61102;51.956;5.878;2022-09-13T11:07:25;4.63;;;1.73;;
72951;SDS011;61102;51.956;5.878;2022-09-13T11:22:08;4.20;;;0.90;;
72951;SDS011;61102;51.956;5.878;2022-09-13T11:25:26;4.53;;;1.10;;
72951;SDS011;61102;51.956;5.878;2022-09-13T11:30:27;4.72;;;0.90;;
72951;SDS011;61102;51.956;5.878;2022-09-13T11:36:09;4.13;;;0.90;;
72951;SDS011;61102;51.956;5.878;2022-09-13T11:44:52;2.72;;;0.70;;
72951;SDS011;61102;51.956;5.878;2022-09-13T11:59:14;3.75;;;0.43;;
72951;SDS011;61102;51.956;5.878;2022-09-13T12:01:48;3.10;;;0.60;;
72951;SDS011;61102;51.956;5.878;2022-09-13T12:04:32;1.77;;;0.50;;
72951;SDS011;61102;51.956;5.878;2022-09-13T12:07:03;1.75;;;0.40;;
72951;SDS011;61102;51.956;5.878;2022-09-13T12:09:36;2.13;;;0.47;;
72951;SDS011;61102;51.956;5.878;2022-09-13T12:12:12;1.60;;;0.40;;
72951;SDS011;61102;51.956;5.878;2022-09-13T12:17:24;2.78;;;0.60;;
72951;SDS011;61102;51.956;5.878;2022-09-13T12:19:54;1.52;;;0.50;;
72951;SDS011;61102;51.956;5.878;2022-09-13T12:22:26;1.92;;;0.32;;
72951;SDS011;61102;51.956;5.878;2022-09-13T12:24:57;3.28;;;0.68;;
72951;SDS011;61102;51.956;5.878;2022-09-13T12:30:23;4.32;;;0.73;;
72951;SDS011;61102;51.956;5.878;2022-09-13T12:32:53;3.35;;;0.70;;
72951;SDS011;61102;51.956;5.878;2022-09-13T12:40:57;3.55;;;0.50;;
72951;SDS011;61102;51.956;5.878;2022-09-13T12:46:52;1.75;;;0.40;;
72951;SDS011;61102;51.956;5.878;2022-09-13T12:52:33;1.65;;;0.40;;
72951;SDS011;61102;51.956;5.878;2022-09-13T12:55:29;1.50;;;0.30;;
72951;SDS011;61102;51.956;5.878;2022-09-13T13:03:14;2.95;;;0.40;;
72951;SDS011;61102;51.956;5.878;2022-09-13T13:05:48;0.65;;;0.20;;
72951;SDS011;61102;51.956;5.878;2022-09-13T13:10:58;2.92;;;0.60;;
72951;SDS011;61102;51.956;5.878;2022-09-13T13:13:38;1.23;;;0.30;;
72951;SDS011;61102;51.956;5.878;2022-09-13T13:16:21;1.58;;;0.47;;
72951;SDS011;61102;51.956;5.878;2022-09-13T13:18:56;2.45;;;0.50;;
72951;SDS011;61102;51.956;5.878;2022-09-13T13:21:26;1.95;;;0.40;;
72951;SDS011;61102;51.956;5.878;2022-09-13T13:26:50;1.60;;;0.40;;
72951;SDS011;61102;51.956;5.878;2022-09-13T13:29:23;3.13;;;0.52;;
72951;SDS011;61102;51.956;5.878;2022-09-13T13:36:49;1.73;;;0.30;;
72951;SDS011;61102;51.956;5.878;2022-09-13T13:41:58;1.77;;;0.30;;
72951;SDS011;61102;51.956;5.878;2022-09-13T13:46:54;1.25;;;0.30;;
72951;SDS011;61102;51.956;5.878;2022-09-13T13:59:51;3.42;;;0.60;;
72951;SDS011;61102;51.956;5.878;2022-09-13T14:02:22;1.25;;;0.30;;
72951;SDS011;61102;51.956;5.878;2022-09-13T14:05:08;4.03;;;0.40;;
72951;SDS011;61102;51.956;5.878;2022-09-13T14:13:24;1.98;;;0.55;;
72951;SDS011;61102;51.956;5.878;2022-09-13T14:21:39;3.40;;;0.50;;
72951;SDS011;61102;51.956;5.878;2022-09-13T14:24:21;0.30;;;0.20;;
72951;SDS011;61102;51.956;5.878;2022-09-13T14:26:55;2.33;;;0.40;;
72951;SDS011;61102;51.956;5.878;2022-09-13T14:29:23;0.95;;;0.20;;
72951;SDS011;61102;51.956;5.878;2022-09-13T14:31:53;2.58;;;0.30;;
72951;SDS011;61102;51.956;5.878;2022-09-13T14:36:53;0.50;;;0.20;;
72951;SDS011;61102;51.956;5.878;2022-09-13T14:39:21;1.55;;;0.40;;
72951;SDS011;61102;51.956;5.878;2022-09-13T14:41:48;4.75;;;0.50;;
72951;SDS011;61102;51.956;5.878;2022-09-13T14:44:24;3.35;;;0.43;;
72951;SDS011;61102;51.956;5.878;2022-09-13T14:47:06;2.08;;;0.50;;
72951;SDS011;61102;51.956;5.878;2022-09-13T14:49:41;3.25;;;0.50;;
72951;SDS011;61102;51.956;5.878;2022-09-13T14:55:17;2.08;;;0.50;;
72951;SDS011;61102;51.956;5.878;2022-09-13T14:57:50;2.80;;;0.45;;
72951;SDS011;61102;51.956;5.878;2022-09-13T15:00:20;0.95;;;0.28;;
72951;SDS011;61102;51.956;5.878;2022-09-13T15:02:50;3.05;;;0.50;;
72951;SDS011;61102;51.956;5.878;2022-09-13T15:05:19;0.85;;;0.40;;
72951;SDS011;61102;51.956;5.878;2022-09-13T15:07:48;1.95;;;0.50;;
72951;SDS011;61102;51.956;5.878;2022-09-13T15:15:26;2.15;;;0.50;;
72951;SDS011;61102;51.956;5.878;2022-09-13T15:23:40;4.20;;;0.70;;
72951;SDS011;61102;51.956;5.878;2022-09-13T15:26:08;2.53;;;0.40;;
72951;SDS011;61102;51.956;5.878;2022-09-13T15:31:10;3.20;;;0.52;;
72951;SDS011;61102;51.956;5.878;2022-09-13T15:33:44;2.85;;;0.50;;
72951;SDS011;61102;51.956;5.878;2022-09-13T15:36:11;1.98;;;0.40;;
72951;SDS011;61102;51.956;5.878;2022-09-13T15:38:54;3.40;;;0.40;;
72951;SDS011;61102;51.956;5.878;2022-09-13T15:41:28;2.10;;;0.40;;
72951;SDS011;61102;51.956;5.878;2022-09-13T15:44:05;2.67;;;0.55;;
72951;SDS011;61102;51.956;5.878;2022-09-13T15:46:36;2.40;;;0.50;;
72951;SDS011;61102;51.956;5.878;2022-09-13T15:49:10;4.30;;;0.50;;
72951;SDS011;61102;51.956;5.878;2022-09-13T15:51:41;2.75;;;0.50;;
72951;SDS011;61102;51.956;5.878;2022-09-13T15:54:09;4.25;;;0.52;;
72951;SDS011;61102;51.956;5.878;2022-09-13T15:56:37;3.65;;;0.60;;
72951;SDS011;61102;51.956;5.878;2022-09-13T15:59:10;2.58;;;0.50;;
72951;SDS011;61102;51.956;5.878;2022-09-13T16:01:38;2.25;;;0.40;;
72951;SDS011;61102;51.956;5.878;2022-09-13T16:04:05;4.82;;;0.60;;
72951;SDS011;61102;51.956;5.878;2022-09-13T16:06:32;2.78;;;0.55;;
72951;SDS011;61102;51.956;5.878;2022-09-13T16:08:59;3.67;;;0.60;;
72951;SDS011;61102;51.956;5.878;2022-09-13T16:11:26;2.28;;;0.50;;
72951;SDS011;61102;51.956;5.878;2022-09-13T16:13:52;3.00;;;0.47;;
72951;SDS011;61102;51.956;5.878;2022-09-13T16:16:18;3.67;;;0.50;;
72951;SDS011;61102;51.956;5.878;2022-09-13T16:18:46;5.38;;;0.68;;
72951;SDS011;61102;51.956;5.878;2022-09-13T16:21:12;3.90;;;0.50;;
72951;SDS011;61102;51.956;5.878;2022-09-13T16:23:38;2.40;;;0.55;;
72951;SDS011;61102;51.956;5.878;2022-09-13T16:26:04;2.47;;;0.52;;
72951;SDS011;61102;51.956;5.878;2022-09-13T16:28:30;1.65;;;0.40;;
72951;SDS011;61102;51.956;5.878;2022-09-13T16:30:56;3.15;;;0.40;;
72951;SDS011;61102;51.956;5.878;2022-09-13T16:33:22;3.70;;;0.57;;
72951;SDS011;61102;51.956;5.878;2022-09-13T16:35:48;3.20;;;0.50;;
72951;SDS011;61102;51.956;5.878;2022-09-13T16:38:15;4.32;;;0.47;;
72951;SDS011;61102;51.956;5.878;2022-09-13T16:40:41;3.85;;;0.50;;
72951;SDS011;61102;51.956;5.878;2022-09-13T16:43:08;2.75;;;0.43;;
72951;SDS011;61102;51.956;5.878;2022-09-13T16:45:37;2.30;;;0.40;;
72951;SDS011;61102;51.956;5.878;2022-09-13T16:48:04;1.48;;;0.30;;
72951;SDS011;61102;51.956;5.878;2022-09-13T16:50:30;5.53;;;0.50;;
72951;SDS011;61102;51.956;5.878;2022-09-13T16:52:56;2.58;;;0.47;;
72951;SDS011;61102;51.956;5.878;2022-09-13T16:55:21;4.13;;;0.50;;
72951;SDS011;61102;51.956;5.878;2022-09-13T16:57:48;3.08;;;0.60;;
72951;SDS011;61102;51.956;5.878;2022-09-13T17:00:17;5.03;;;0.60;;
72951;SDS011;61102;51.956;5.878;2022-09-13T17:02:45;6.78;;;0.93;;
72951;SDS011;61102;51.956;5.878;2022-09-13T17:05:11;5.43;;;0.90;;
72951;SDS011;61102;51.956;5.878;2022-09-13T17:07:38;3.03;;;0.55;;
72951;SDS011;61102;51.956;5.878;2022-09-13T17:10:05;1.63;;;0.40;;
72951;SDS011;61102;51.956;5.878;2022-09-13T17:12:32;3.20;;;0.50;;
72951;SDS011;61102;51.956;5.878;2022-09-13T17:14:59;1.85;;;0.40;;
72951;SDS011;61102;51.956;5.878;2022-09-13T17:17:25;2.67;;;0.40;;
72951;SDS011;61102;51.956;5.878;2022-09-13T17:19:51;3.15;;;0.45;;
72951;SDS011;61102;51.956;5.878;2022-09-13T17:22:17;3.55;;;0.50;;
72951;SDS011;61102;51.956;5.878;2022-09-13T17:24:43;3.25;;;0.55;;
72951;SDS011;61102;51.956;5.878;2022-09-13T17:27:09;4.88;;;0.70;;
72951;SDS011;61102;51.956;5.878;2022-09-13T17:29:35;2.78;;;0.50;;
72951;SDS011;61102;51.956;5.878;2022-09-13T17:32:02;1.58;;;0.30;;
72951;SDS011;61102;51.956;5.878;2022-09-13T17:34:30;5.65;;;0.60;;
72951;SDS011;61102;51.956;5.878;2022-09-13T17:36:59;3.67;;;0.55;;
72951;SDS011;61102;51.956;5.878;2022-09-13T17:39:25;6.75;;;0.50;;
72951;SDS011;61102;51.956;5.878;2022-09-13T17:41:52;3.33;;;0.43;;
72951;SDS011;61102;51.956;5.878;2022-09-13T17:44:18;4.35;;;0.50;;
72951;SDS011;61102;51.956;5.878;2022-09-13T17:46:47;4.75;;;0.50;;
72951;SDS011;61102;51.956;5.878;2022-09-13T17:49:13;4.47;;;0.60;;
72951;SDS011;61102;51.956;5.878;2022-09-13T17:51:39;4.40;;;0.50;;
72951;SDS011;61102;51.956;5.878;2022-09-13T17:54:06;4.13;;;0.52;;
72951;SDS011;61102;51.956;5.878;2022-09-13T17:56:35;6.03;;;0.68;;
72951;SDS011;61102;51.956;5.878;2022-09-13T18:01:35;4.03;;;0.50;;
72951;SDS011;61102;51.956;5.878;2022-09-13T18:04:02;4.60;;;0.40;;
72951;SDS011;61102;51.956;5.878;2022-09-13T18:06:28;3.33;;;0.40;;
72951;SDS011;61102;51.956;5.878;2022-09-13T18:08:55;3.70;;;0.40;;
72951;SDS011;61102;51.956;5.878;2022-09-13T18:11:22;4.78;;;0.50;;
72951;SDS011;61102;51.956;5.878;2022-09-13T18:13:49;5.57;;;0.50;;
72951;SDS011;61102;51.956;5.878;2022-09-13T18:16:21;5.53;;;0.60;;
72951;SDS011;61102;51.956;5.878;2022-09-13T18:18:49;4.13;;;0.50;;
72951;SDS011;61102;51.956;5.878;2022-09-13T18:21:17;3.47;;;0.40;;
72951;SDS011;61102;51.956;5.878;2022-09-13T18:23:45;3.75;;;0.70;;
72951;SDS011;61102;51.956;5.878;2022-09-13T18:26:16;2.22;;;0.30;;
72951;SDS011;61102;51.956;5.878;2022-09-13T18:28:44;2.58;;;0.60;;
72951;SDS011;61102;51.956;5.878;2022-09-13T18:31:12;3.00;;;0.43;;
72951;SDS011;61102;51.956;5.878;2022-09-13T18:33:40;6.32;;;0.55;;
72951;SDS011;61102;51.956;5.878;2022-09-13T18:36:07;6.47;;;0.52;;
72951;SDS011;61102;51.956;5.878;2022-09-13T18:38:38;4.15;;;0.57;;
72951;SDS011;61102;51.956;5.878;2022-09-13T18:41:10;3.38;;;0.40;;
72951;SDS011;61102;51.956;5.878;2022-09-13T18:43:37;3.80;;;0.40;;
72951;SDS011;61102;51.956;5.878;2022-09-13T18:46:06;3.63;;;0.40;;
72951;SDS011;61102;51.956;5.878;2022-09-13T18:48:35;5.45;;;0.60;;
72951;SDS011;61102;51.956;5.878;2022-09-13T18:51:04;4.18;;;0.50;;
72951;SDS011;61102;51.956;5.878;2022-09-13T18:53:33;3.65;;;0.47;;